createdAt,value
2023-05-24T00:01:25.577Z,14.20
2023-05-24T00:03:53.516Z,14.18
2023-05-24T00:06:21.451Z,14.14
2023-05-24T00:08:50.483Z,14.10
2023-05-24T00:11:18.121Z,14.04
2023-05-24T00:13:45.820Z,14.00
2023-05-24T00:16:13.527Z,13.98
2023-05-24T00:18:41.204Z,13.97
2023-05-24T00:21:09.174Z,13.90
2023-05-24T00:23:38.647Z,13.84
2023-05-24T00:26:07.601Z,13.80
2023-05-24T00:28:35.666Z,13.77
2023-05-24T00:31:03.316Z,13.76
2023-05-24T00:33:30.932Z,13.72
2023-05-24T00:35:58.593Z,13.74
2023-05-24T00:38:27.364Z,13.72
2023-05-24T00:40:56.402Z,13.74
2023-05-24T00:43:25.418Z,13.74
2023-05-24T00:46:13.247Z,13.69
2023-05-24T00:48:41.256Z,13.69
2023-05-24T00:51:08.983Z,13.67
2023-05-24T00:53:38.310Z,13.65
2023-05-24T00:56:07.504Z,13.64
2023-05-24T00:58:36.500Z,13.63
2023-05-24T01:01:04.972Z,13.61
2023-05-24T01:03:33.837Z,13.58
2023-05-24T01:06:06.045Z,13.52
2023-05-24T01:08:44.624Z,13.48
2023-05-24T01:11:23.225Z,13.46
2023-05-24T01:13:59.726Z,13.43
2023-05-24T01:16:37.869Z,13.44
2023-05-24T01:19:17.909Z,13.44
2023-05-24T01:21:58.970Z,13.45
2023-05-24T01:24:31.946Z,13.46
2023-05-24T01:27:08.517Z,13.48
2023-05-24T01:29:36.788Z,13.48
2023-05-24T01:32:04.949Z,13.43
2023-05-24T01:34:32.577Z,13.42
2023-05-24T01:37:00.187Z,13.38
2023-05-24T01:39:30.500Z,13.33
2023-05-24T01:42:09.901Z,13.32
2023-05-24T01:44:44.018Z,13.33
2023-05-24T01:47:26.664Z,13.33
2023-05-24T01:49:58.149Z,13.32
2023-05-24T01:52:32.596Z,13.28
2023-05-24T01:55:03.965Z,13.25
2023-05-24T01:57:35.413Z,13.22
2023-05-24T02:00:06.014Z,13.17
2023-05-24T02:02:33.871Z,13.19
2023-05-24T02:05:01.489Z,13.20
2023-05-24T02:07:29.106Z,13.17
2023-05-24T02:09:56.752Z,13.10
2023-05-24T02:12:24.343Z,13.07
2023-05-24T02:14:54.634Z,13.02
2023-05-24T02:17:22.588Z,12.96
2023-05-24T02:19:50.219Z,12.91
2023-05-24T02:22:17.828Z,12.86
2023-05-24T02:24:45.471Z,12.82
2023-05-24T02:27:13.043Z,12.78
2023-05-24T02:29:41.884Z,12.77
2023-05-24T02:32:10.811Z,12.75
2023-05-24T02:34:38.403Z,12.70
2023-05-24T02:37:06.377Z,12.66
2023-05-24T02:39:33.974Z,12.65
2023-05-24T02:42:01.603Z,12.63
2023-05-24T02:44:29.208Z,12.63
2023-05-24T02:46:56.796Z,12.65
2023-05-24T02:49:25.776Z,12.60
2023-05-24T02:51:53.404Z,12.60
2023-05-24T02:54:21.072Z,12.58
2023-05-24T02:56:48.884Z,12.57
2023-05-24T02:59:16.642Z,12.58
2023-05-24T03:01:44.305Z,12.51
2023-05-24T03:04:11.961Z,12.50
2023-05-24T03:06:41.058Z,12.57
2023-05-24T03:09:09.200Z,12.60
2023-05-24T03:11:36.792Z,12.57
2023-05-24T03:14:04.344Z,12.50
2023-05-24T03:16:31.990Z,12.45
2023-05-24T03:19:00.331Z,12.39
2023-05-24T03:21:27.901Z,12.34
2023-05-24T03:23:57.092Z,12.27
2023-05-24T03:26:24.666Z,12.20
2023-05-24T03:28:54.314Z,12.17
2023-05-24T03:31:24.204Z,12.13
2023-05-24T03:33:52.058Z,12.11
2023-05-24T03:36:20.674Z,12.09
2023-05-24T03:38:48.301Z,12.09
2023-05-24T03:41:17.279Z,12.11
2023-05-24T03:43:45.431Z,12.13
2023-05-24T03:46:13.035Z,12.12
2023-05-24T03:48:40.739Z,12.13
2023-05-24T03:51:09.252Z,12.15
2023-05-24T03:53:36.827Z,12.12
2023-05-24T03:56:04.552Z,12.07
2023-05-24T03:58:33.478Z,12.03
2023-05-24T04:01:01.790Z,12.00
2023-05-24T04:03:29.426Z,12.01
2023-05-24T04:05:57.002Z,12.01
2023-05-24T04:08:24.566Z,12.00
2023-05-24T04:10:52.122Z,12.00
2023-05-24T04:13:19.759Z,12.01
2023-05-24T04:15:48.747Z,12.03
2023-05-24T04:18:16.821Z,12.05
2023-05-24T04:20:44.705Z,12.04
2023-05-24T04:23:12.559Z,12.09
2023-05-24T04:25:40.252Z,12.13
2023-05-24T04:28:08.445Z,12.15
2023-05-24T04:30:36.797Z,12.13
2023-05-24T04:33:05.955Z,12.10
2023-05-24T04:35:33.595Z,12.06
2023-05-24T04:38:01.137Z,12.03
2023-05-24T04:40:28.743Z,12.00
2023-05-24T04:42:56.402Z,11.93
2023-05-24T04:45:23.979Z,11.93
2023-05-24T04:47:51.632Z,11.91
2023-05-24T04:50:20.589Z,11.89
2023-05-24T04:52:48.198Z,11.88
2023-05-24T04:55:15.835Z,11.88
2023-05-24T04:57:43.410Z,11.89
2023-05-24T05:00:12.022Z,11.91
2023-05-24T05:02:39.807Z,11.92
2023-05-24T05:05:08.274Z,11.91
2023-05-24T05:07:38.469Z,11.93
2023-05-24T05:10:07.112Z,11.90
2023-05-24T05:12:34.662Z,11.92
2023-05-24T05:15:02.360Z,11.93
2023-05-24T05:17:29.957Z,11.91
2023-05-24T05:19:57.865Z,11.87
2023-05-24T05:22:25.527Z,11.82
2023-05-24T05:24:54.427Z,11.79
2023-05-24T05:27:22.013Z,11.77
2023-05-24T05:29:49.602Z,11.74
2023-05-24T05:32:17.378Z,11.74
2023-05-24T05:34:45.227Z,11.79
2023-05-24T05:37:12.798Z,11.81
2023-05-24T05:39:40.999Z,11.83
2023-05-24T05:42:09.968Z,11.86
2023-05-24T05:44:37.521Z,11.92
2023-05-24T05:47:07.356Z,11.98
2023-05-24T05:49:36.298Z,11.99
2023-05-24T05:52:04.025Z,11.99
2023-05-24T05:54:31.606Z,12.02
2023-05-24T05:57:01.346Z,12.08
2023-05-24T05:59:30.626Z,12.07
2023-05-24T06:01:58.172Z,12.03
2023-05-24T06:04:25.760Z,11.94
2023-05-24T06:06:53.433Z,11.88
2023-05-24T06:09:21.030Z,11.82
2023-05-24T06:11:48.638Z,11.77
2023-05-24T06:14:18.502Z,11.74
2023-05-24T06:16:47.965Z,11.74
2023-05-24T06:19:16.512Z,11.73
2023-05-24T06:21:47.800Z,11.77
2023-05-24T06:24:17.881Z,11.80
2023-05-24T06:26:45.525Z,11.78
2023-05-24T06:29:13.913Z,11.77
2023-05-24T06:31:41.673Z,11.80
2023-05-24T06:34:10.600Z,11.84
2023-05-24T06:36:41.486Z,11.84
2023-05-24T06:39:10.156Z,11.86
2023-05-24T06:41:38.954Z,11.90
2023-05-24T06:44:06.675Z,11.90
2023-05-24T06:46:34.336Z,11.94
2023-05-24T06:49:02.207Z,11.98
2023-05-24T06:51:33.428Z,12.01
2023-05-24T06:54:01.107Z,12.02
2023-05-24T06:56:28.836Z,12.03
2023-05-24T06:58:56.783Z,11.99
2023-05-24T07:01:24.421Z,12.01
2023-05-24T07:03:52.111Z,12.01
2023-05-24T07:06:19.752Z,12.05
2023-05-24T07:08:48.648Z,12.08
2023-05-24T07:11:16.419Z,12.14
2023-05-24T07:13:44.039Z,12.19
2023-05-24T07:16:12.784Z,12.20
2023-05-24T07:18:41.765Z,12.25
2023-05-24T07:21:09.738Z,12.29
2023-05-24T07:23:38.752Z,12.27
2023-05-24T07:26:09.046Z,12.25
2023-05-24T07:28:37.899Z,12.26
2023-05-24T07:31:06.149Z,12.32
2023-05-24T07:33:34.136Z,12.42
2023-05-24T07:36:02.681Z,12.48
2023-05-24T07:38:31.053Z,12.55
2023-05-24T07:41:00.987Z,12.58
2023-05-24T07:43:30.981Z,12.60
2023-05-24T07:45:58.687Z,12.63
2023-05-24T07:48:26.735Z,12.66
2023-05-24T07:50:55.014Z,12.69
2023-05-24T07:53:23.367Z,12.74
2023-05-24T07:55:51.714Z,12.81
2023-05-24T07:58:19.512Z,12.85
2023-05-24T08:00:48.425Z,12.87
2023-05-24T08:03:17.423Z,12.87
2023-05-24T08:05:45.382Z,12.92
2023-05-24T08:08:13.970Z,12.90
2023-05-24T08:10:41.846Z,12.93
2023-05-24T08:13:09.502Z,12.91
2023-05-24T08:15:37.079Z,12.96
2023-05-24T08:18:06.078Z,12.99
2023-05-24T08:20:36.122Z,13.02
2023-05-24T08:23:03.842Z,12.98
2023-05-24T08:25:31.549Z,12.99
2023-05-24T08:27:59.102Z,13.02
2023-05-24T08:30:26.668Z,13.03
2023-05-24T08:32:54.255Z,13.05
2023-05-24T08:35:23.260Z,13.04
2023-05-24T08:37:54.714Z,13.00
2023-05-24T08:40:24.372Z,13.02
2023-05-24T08:42:58.517Z,13.07
2023-05-24T08:45:41.095Z,13.11
2023-05-24T08:48:18.390Z,13.15
2023-05-24T08:50:54.379Z,13.16
2023-05-24T08:53:26.176Z,13.12
2023-05-24T08:55:57.098Z,13.12
2023-05-24T08:58:26.765Z,13.11
2023-05-24T09:00:55.718Z,13.11
2023-05-24T09:03:29.847Z,13.14
2023-05-24T09:06:02.396Z,13.15
2023-05-24T09:08:38.133Z,13.20
2023-05-24T09:11:09.182Z,13.24
2023-05-24T09:13:38.663Z,13.24
2023-05-24T09:16:27.470Z,13.24
2023-05-24T09:19:10.649Z,13.24
2023-05-24T09:21:49.322Z,13.29
2023-05-24T09:24:25.856Z,13.29
2023-05-24T09:27:05.186Z,13.27
2023-05-24T09:29:39.351Z,13.26
2023-05-24T09:32:10.219Z,13.25
2023-05-24T09:34:43.033Z,13.26
2023-05-24T09:37:18.349Z,13.24
2023-05-24T09:39:50.335Z,13.24
2023-05-24T09:42:24.618Z,13.23
2023-05-24T09:45:08.920Z,13.20
2023-05-24T09:47:39.146Z,13.16
2023-05-24T09:50:19.738Z,13.11
2023-05-24T09:52:50.402Z,13.08
2023-05-24T09:55:20.863Z,13.07
2023-05-24T09:57:55.772Z,13.04
2023-05-24T10:00:28.272Z,13.09
2023-05-24T10:03:04.461Z,13.12
2023-05-24T10:05:33.303Z,13.13
2023-05-24T10:08:10.480Z,13.16
2023-05-24T10:10:46.502Z,13.21
2023-05-24T10:13:18.052Z,13.22
2023-05-24T10:15:53.052Z,13.17
2023-05-24T10:18:27.290Z,13.22
2023-05-24T10:20:59.513Z,13.26
2023-05-24T10:23:40.467Z,13.28
2023-05-24T10:26:11.743Z,13.27
2023-05-24T10:28:43.865Z,13.27
2023-05-24T10:31:19.124Z,13.28
2023-05-24T10:33:55.664Z,13.28
2023-05-24T10:36:31.230Z,13.24
2023-05-24T10:39:04.907Z,13.18
2023-05-24T10:41:44.830Z,13.14
2023-05-24T10:44:17.663Z,13.16
2023-05-24T10:47:07.862Z,13.20
2023-05-24T10:49:43.972Z,13.17
2023-05-24T10:52:19.237Z,13.12
2023-05-24T10:55:17.047Z,13.10
2023-05-24T10:57:48.169Z,13.14
2023-05-24T11:03:24.005Z,13.23
2023-05-24T11:06:04.340Z,13.22
2023-05-24T11:08:35.663Z,13.20
2023-05-24T11:11:25.666Z,13.15
2023-05-24T11:13:59.011Z,13.14
2023-05-24T11:16:40.954Z,13.13
2023-05-24T11:19:24.074Z,13.15
2023-05-24T11:21:59.705Z,13.14
2023-05-24T11:24:32.475Z,13.11
2023-05-24T11:27:09.492Z,13.05
2023-05-24T11:29:47.970Z,12.99
2023-05-24T11:32:25.676Z,12.92
2023-05-24T11:34:53.588Z,12.88
2023-05-24T11:37:38.624Z,12.91
2023-05-24T11:40:16.754Z,12.95
2023-05-24T11:42:49.897Z,12.90
2023-05-24T11:45:23.234Z,12.89
2023-05-24T11:47:58.928Z,12.87
2023-05-24T11:50:45.712Z,12.87
2023-05-24T11:53:22.966Z,12.86
2023-05-24T11:55:54.837Z,12.84
2023-05-24T11:58:46.662Z,12.86
2023-05-24T12:01:28.866Z,12.87
2023-05-24T12:03:57.594Z,12.88
2023-05-24T12:06:35.596Z,12.90
2023-05-24T12:09:08.930Z,12.90
2023-05-24T12:11:41.850Z,12.89
2023-05-24T12:14:19.485Z,12.90
2023-05-24T12:16:55.290Z,12.88
2023-05-24T12:19:33.256Z,12.94
2023-05-24T12:22:03.225Z,12.99
2023-05-24T12:24:32.762Z,13.01
2023-05-24T12:27:11.140Z,13.07
2023-05-24T12:29:45.975Z,13.14
2023-05-24T12:32:17.082Z,13.25
2023-05-24T12:34:51.698Z,13.37
2023-05-24T12:37:22.089Z,13.50
2023-05-24T12:39:59.214Z,13.59
2023-05-24T12:42:31.720Z,13.71
2023-05-24T12:45:04.948Z,13.84
2023-05-24T12:47:37.040Z,13.95
2023-05-24T12:50:13.431Z,14.08
2023-05-24T12:52:49.079Z,14.26
2023-05-24T12:55:24.350Z,14.42
2023-05-24T12:57:59.230Z,14.56
2023-05-24T13:00:34.555Z,14.71
2023-05-24T13:03:04.282Z,14.86
2023-05-24T13:05:37.148Z,14.95
2023-05-24T13:08:07.373Z,15.06
2023-05-24T13:10:37.737Z,15.12
2023-05-24T13:13:16.758Z,15.16
2023-05-24T13:15:53.221Z,15.22
2023-05-24T13:18:31.735Z,15.27
2023-05-24T13:21:12.758Z,15.31
2023-05-24T13:23:45.377Z,15.38
2023-05-24T13:26:17.653Z,15.46
2023-05-24T13:29:08.081Z,15.52
2023-05-24T13:31:50.840Z,15.65
2023-05-24T13:34:27.666Z,15.75
2023-05-24T13:37:02.854Z,15.83
2023-05-24T13:39:37.622Z,15.91
2023-05-24T13:42:07.262Z,15.91
2023-05-24T13:44:41.398Z,15.94
2023-05-24T13:47:23.718Z,15.94
2023-05-24T13:50:05.400Z,15.92
2023-05-24T13:52:44.862Z,15.92
2023-05-24T13:55:25.893Z,15.89
2023-05-24T13:57:56.156Z,15.93
2023-05-24T14:00:26.366Z,15.98
2023-05-24T14:02:58.502Z,16.05
2023-05-24T14:05:35.371Z,16.12
2023-05-24T14:08:08.018Z,16.22
2023-05-24T14:10:42.100Z,16.22
2023-05-24T14:13:36.806Z,16.19
2023-05-24T14:16:13.069Z,16.19
2023-05-24T14:18:47.970Z,16.17
2023-05-24T14:21:27.049Z,16.11
2023-05-24T14:23:58.003Z,16.06
2023-05-24T14:26:30.354Z,16.00
2023-05-24T14:29:03.906Z,15.97
2023-05-24T14:31:43.886Z,16.01
2023-05-24T14:34:19.786Z,16.04
2023-05-24T14:36:48.495Z,16.07
2023-05-24T14:39:16.077Z,16.12
2023-05-24T14:41:43.654Z,16.17
2023-05-24T14:44:11.252Z,16.17
2023-05-24T14:46:39.043Z,16.15
2023-05-24T14:49:06.693Z,16.15
2023-05-24T14:51:35.601Z,16.15
2023-05-24T14:54:03.207Z,16.18
2023-05-24T14:56:30.796Z,16.20
2023-05-24T14:58:59.351Z,16.21
2023-05-24T15:01:27.218Z,16.23
2023-05-24T15:03:54.948Z,16.22
2023-05-24T15:06:23.002Z,16.19
2023-05-24T15:08:52.504Z,16.19
2023-05-24T15:11:20.142Z,16.19
2023-05-24T15:13:47.712Z,16.21
2023-05-24T15:16:15.282Z,16.21
2023-05-24T15:18:42.917Z,16.20
2023-05-24T15:21:10.595Z,16.24
2023-05-24T15:23:38.275Z,16.24
2023-05-24T15:26:08.183Z,16.22
2023-05-24T15:28:35.823Z,16.26
2023-05-24T15:31:03.870Z,16.30
2023-05-24T15:33:32.612Z,16.34
2023-05-24T15:36:00.417Z,16.34
2023-05-24T15:38:27.985Z,16.33
2023-05-24T15:40:55.548Z,16.34
2023-05-24T15:43:24.414Z,16.37
2023-05-24T15:45:51.962Z,16.38
2023-05-24T15:48:19.547Z,16.42
2023-05-24T15:51:25.652Z,16.42
2023-05-24T15:53:34.673Z,16.44
2023-05-24T15:56:02.207Z,16.50
2023-05-24T15:58:31.080Z,16.51
2023-05-24T16:00:58.630Z,16.50
2023-05-24T16:03:26.282Z,16.48
2023-05-24T16:05:53.823Z,16.46
2023-05-24T16:08:27.344Z,16.49
2023-05-24T16:10:54.947Z,16.50
2023-05-24T16:13:22.635Z,16.51
2023-05-24T16:15:52.112Z,16.48
2023-05-24T16:18:22.238Z,16.43
2023-05-24T16:20:50.904Z,16.38
2023-05-24T16:23:19.250Z,16.35
2023-05-24T16:25:46.962Z,16.34
2023-05-24T16:28:14.535Z,16.35
2023-05-24T16:30:42.279Z,16.37
2023-05-24T16:33:11.348Z,16.39
2023-05-24T16:35:38.897Z,16.40
2023-05-24T16:38:06.442Z,16.38
2023-05-24T16:40:33.993Z,16.36
2023-05-24T16:43:01.553Z,16.38
2023-05-24T16:45:29.144Z,16.38
2023-05-24T16:47:56.743Z,16.37
2023-05-24T16:50:25.829Z,16.37
2023-05-24T16:52:53.333Z,16.37
2023-05-24T16:55:20.995Z,16.35
2023-05-24T16:57:48.573Z,16.37
2023-05-24T17:00:16.789Z,16.37
2023-05-24T17:02:44.650Z,16.34
2023-05-24T17:05:12.423Z,16.30
2023-05-24T17:07:41.328Z,16.27
2023-05-24T17:10:09.823Z,16.22
2023-05-24T17:12:37.377Z,16.20
2023-05-24T17:15:06.804Z,16.18
2023-05-24T17:17:34.614Z,16.14
2023-05-24T17:20:02.282Z,16.10
2023-05-24T17:22:29.867Z,16.07
2023-05-24T17:24:58.773Z,16.03
2023-05-24T17:27:26.291Z,15.96
2023-05-24T17:29:53.833Z,15.87
2023-05-24T17:32:21.500Z,15.79
2023-05-24T17:34:49.020Z,15.77
2023-05-24T17:37:16.593Z,15.74
2023-05-24T17:39:44.114Z,15.70
2023-05-24T17:42:13.054Z,15.62
2023-05-24T17:44:40.672Z,15.57
2023-05-24T17:47:08.261Z,15.53
2023-05-24T17:49:35.870Z,15.47
2023-05-24T17:52:03.447Z,15.41
2023-05-24T17:54:31.024Z,15.38
2023-05-24T17:56:58.586Z,15.35
2023-05-24T17:59:27.503Z,15.32
2023-05-24T18:01:55.205Z,15.27
2023-05-24T18:04:22.816Z,15.21
2023-05-24T18:06:50.416Z,15.16
2023-05-24T18:09:18.066Z,15.13
2023-05-24T18:11:45.737Z,15.11
2023-05-24T18:14:13.379Z,15.08
2023-05-24T18:16:42.798Z,15.06
2023-05-24T18:19:10.556Z,14.98
2023-05-24T18:21:38.133Z,14.92
2023-05-24T18:24:05.758Z,14.87
2023-05-24T18:26:33.332Z,14.84
2023-05-24T18:29:00.932Z,14.80
2023-05-24T18:31:28.623Z,14.77
2023-05-24T18:33:58.134Z,14.76
2023-05-24T18:36:27.032Z,14.73
2023-05-24T18:38:54.596Z,14.70
2023-05-24T18:41:22.220Z,14.68
2023-05-24T18:43:49.773Z,14.63
2023-05-24T18:46:17.636Z,14.61
2023-05-24T18:48:45.376Z,14.59
2023-05-24T18:51:14.479Z,14.57
2023-05-24T18:53:42.086Z,14.59
2023-05-24T18:56:09.628Z,14.58
2023-05-24T18:58:37.256Z,14.52
2023-05-24T19:01:04.999Z,14.47
2023-05-24T19:03:32.638Z,14.45
2023-05-24T19:06:00.258Z,14.41
2023-05-24T19:08:29.139Z,14.32
2023-05-24T19:10:56.737Z,14.24
2023-05-24T19:13:24.324Z,14.21
2023-05-24T19:15:53.585Z,14.18
2023-05-24T19:18:21.612Z,14.18
2023-05-24T19:20:49.517Z,14.16
2023-05-24T19:23:17.215Z,14.13
2023-05-24T19:25:49.994Z,14.04
2023-05-24T19:28:18.188Z,13.93
2023-05-24T19:30:45.777Z,13.81
2023-05-24T19:33:13.405Z,13.69
2023-05-24T19:35:41.082Z,13.58
2023-05-24T19:38:08.764Z,13.47
2023-05-24T19:40:36.288Z,13.36
2023-05-24T19:43:05.179Z,13.24
2023-05-24T19:45:32.731Z,13.15
2023-05-24T19:48:00.736Z,13.06
2023-05-24T19:50:31.033Z,12.99
2023-05-24T19:52:58.893Z,12.92
2023-05-24T19:55:26.469Z,12.86
2023-05-24T19:57:54.015Z,12.80
2023-05-24T20:00:22.984Z,12.73
2023-05-24T20:02:50.636Z,12.67
2023-05-24T20:05:18.521Z,12.61
2023-05-24T20:07:46.070Z,12.53
2023-05-24T20:10:13.771Z,12.49
2023-05-24T20:12:42.587Z,12.44
2023-05-24T20:15:12.370Z,12.33
2023-05-24T20:17:41.392Z,12.27
2023-05-24T20:20:09.782Z,12.24
2023-05-24T20:22:37.379Z,12.22
2023-05-24T20:25:05.786Z,12.23
2023-05-24T20:27:33.484Z,12.20
2023-05-24T20:30:01.215Z,12.16
2023-05-24T20:32:28.799Z,12.18
2023-05-24T20:34:57.678Z,12.22
2023-05-24T20:37:25.373Z,12.22
2023-05-24T20:39:52.950Z,12.27
2023-05-24T20:42:20.490Z,12.29
2023-05-24T21:14:29.373Z,12.05
2023-05-24T21:17:12.151Z,12.04
